createdAt,value
2023-04-23T00:01:02.330Z,3.85
2023-04-23T00:04:52.846Z,3.73
2023-04-23T00:08:35.363Z,4.35
2023-04-23T00:12:17.448Z,4.25
2023-04-23T00:16:00.216Z,4.15
2023-04-23T00:19:42.149Z,5.15
2023-04-23T00:23:23.955Z,4.18
2023-04-23T00:27:06.325Z,4.20
2023-04-23T00:30:48.078Z,3.97
2023-04-23T00:34:29.911Z,4.65
2023-04-23T00:38:11.740Z,4.75
2023-04-23T00:41:53.536Z,4.68
2023-04-23T00:45:35.652Z,4.75
2023-04-23T00:49:18.980Z,4.22
2023-04-23T00:53:01.108Z,5.18
2023-04-23T00:56:43.397Z,4.70
2023-04-23T01:00:25.195Z,4.25
2023-04-23T01:04:09.519Z,5.35
2023-04-23T01:07:51.767Z,5.00
2023-04-23T01:11:34.208Z,4.25
2023-04-23T01:15:16.710Z,4.45
2023-04-23T01:18:58.550Z,3.95
2023-04-23T01:22:40.733Z,4.30
2023-04-23T01:26:23.831Z,2.83
2023-04-23T01:30:06.292Z,3.55
2023-04-23T01:33:49.361Z,3.78
2023-04-23T01:37:32.157Z,3.65
2023-04-23T01:41:14.241Z,4.00
2023-04-23T01:44:56.026Z,3.20
2023-04-23T01:48:37.972Z,3.90
2023-04-23T01:52:19.720Z,3.78
2023-04-23T01:56:02.932Z,3.97
2023-04-23T01:59:44.823Z,5.32
2023-04-23T02:03:27.058Z,4.65
2023-04-23T02:07:09.010Z,5.03
2023-04-23T02:10:50.762Z,4.65
2023-04-23T02:14:32.702Z,4.78
2023-04-23T02:18:14.430Z,4.15
2023-04-23T02:21:56.173Z,4.68
2023-04-23T02:25:41.078Z,5.10
2023-04-23T02:29:22.814Z,5.63
2023-04-23T02:33:05.136Z,5.28
2023-04-23T02:36:46.893Z,4.82
2023-04-23T02:40:28.795Z,6.20
2023-04-23T02:44:10.609Z,8.73
2023-04-23T02:47:53.601Z,10.45
2023-04-23T02:51:35.475Z,10.25
2023-04-23T02:55:17.255Z,10.13
2023-04-23T02:58:59.059Z,11.80
2023-04-23T03:02:41.518Z,11.93
2023-04-23T03:06:23.308Z,12.10
2023-04-23T03:10:05.581Z,13.20
2023-04-23T03:13:47.310Z,12.82
2023-04-23T03:17:29.080Z,11.25
2023-04-23T03:21:10.903Z,12.23
2023-04-23T03:24:52.635Z,12.80
2023-04-23T03:28:34.387Z,11.55
2023-04-23T03:32:16.136Z,11.73
2023-04-23T03:35:58.321Z,11.88
2023-04-23T03:39:40.387Z,12.25
2023-04-23T03:43:22.151Z,11.48
2023-04-23T03:47:04.030Z,11.82
2023-04-23T03:50:45.821Z,13.10
2023-04-23T03:54:28.247Z,11.20
2023-04-23T03:58:10.680Z,11.18
2023-04-23T04:01:52.469Z,12.23
2023-04-23T04:05:34.885Z,12.70
2023-04-23T04:09:17.130Z,13.23
2023-04-23T04:12:58.921Z,13.07
2023-04-23T04:16:40.869Z,13.32
2023-04-23T04:20:22.596Z,12.50
2023-04-23T04:24:07.702Z,11.90
2023-04-23T04:27:49.867Z,12.40
2023-04-23T04:31:32.342Z,12.23
2023-04-23T04:35:14.520Z,13.57
2023-04-23T04:38:58.526Z,13.55
2023-04-23T04:42:40.423Z,12.95
2023-04-23T04:46:22.237Z,12.55
2023-04-23T04:50:05.439Z,12.25
2023-04-23T04:53:47.239Z,12.95
2023-04-23T04:57:28.976Z,12.00
2023-04-23T05:01:10.958Z,11.07
2023-04-23T05:04:52.978Z,12.13
2023-04-23T05:08:34.694Z,11.70
2023-04-23T05:12:16.543Z,11.00
2023-04-23T05:15:58.341Z,12.32
2023-04-23T05:19:40.246Z,10.35
2023-04-23T05:23:22.094Z,10.52
2023-04-23T05:27:03.866Z,11.30
2023-04-23T05:30:45.698Z,11.25
2023-04-23T05:34:27.402Z,12.48
2023-04-23T05:38:10.449Z,11.90
2023-04-23T05:41:52.225Z,11.02
2023-04-23T05:45:34.092Z,12.65
2023-04-23T05:49:16.070Z,12.23
2023-04-23T05:52:57.834Z,12.98
2023-04-23T05:56:39.557Z,13.13
2023-04-23T06:00:21.300Z,11.38
2023-04-23T06:04:03.494Z,12.60
2023-04-23T06:07:45.346Z,13.13
2023-04-23T06:11:27.429Z,13.15
2023-04-23T06:15:10.296Z,13.15
2023-04-23T06:18:52.177Z,13.52
2023-04-23T06:22:33.884Z,13.35
2023-04-23T06:26:15.754Z,15.35
2023-04-23T06:29:57.472Z,15.73
2023-04-23T06:33:39.388Z,15.35
2023-04-23T06:37:21.166Z,15.93
2023-04-23T06:41:04.279Z,17.02
2023-04-23T06:44:47.019Z,16.02
2023-04-23T06:48:28.799Z,16.42
2023-04-23T06:52:10.542Z,18.33
2023-04-23T06:55:52.268Z,17.35
2023-04-23T06:59:34.086Z,17.85
2023-04-23T07:03:15.928Z,17.85
2023-04-23T07:06:57.696Z,17.35
2023-04-23T07:10:39.475Z,16.98
2023-04-23T07:14:21.305Z,16.05
2023-04-23T07:18:03.679Z,16.58
2023-04-23T07:21:45.473Z,16.00
2023-04-23T07:25:27.312Z,17.48
2023-04-23T07:29:11.227Z,16.73
2023-04-23T07:32:55.500Z,16.35
2023-04-23T07:36:37.405Z,17.45
2023-04-23T07:40:20.874Z,17.70
2023-04-23T07:44:02.696Z,18.17
2023-04-23T07:47:46.479Z,19.65
2023-04-23T07:51:28.528Z,16.63
2023-04-23T07:55:13.149Z,16.33
2023-04-23T07:58:56.601Z,16.13
2023-04-23T08:02:38.765Z,14.90
2023-04-23T08:06:20.601Z,14.68
2023-04-23T08:10:06.081Z,10.32
2023-04-23T08:13:47.969Z,10.35
2023-04-23T08:17:29.789Z,10.93
2023-04-23T08:21:12.935Z,12.70
2023-04-23T08:24:54.770Z,12.38
2023-04-23T08:28:36.534Z,13.32
2023-04-23T08:32:18.328Z,11.60
2023-04-23T08:36:00.528Z,9.98
2023-04-23T08:39:42.524Z,10.65
2023-04-23T08:43:48.934Z,10.70
2023-04-23T08:47:32.289Z,10.65
2023-04-23T08:51:19.053Z,10.27
2023-04-23T08:55:04.197Z,9.25
2023-04-23T08:58:47.100Z,7.70
2023-04-23T09:02:29.370Z,6.78
2023-04-23T09:06:11.917Z,7.80
2023-04-23T09:09:53.641Z,4.30
2023-04-23T09:13:36.393Z,5.78
2023-04-23T09:17:20.658Z,5.85
2023-04-23T09:21:04.310Z,6.10
2023-04-23T09:24:46.049Z,7.40
2023-04-23T09:28:38.232Z,7.38
2023-04-23T09:32:32.333Z,8.10
2023-04-23T09:36:15.720Z,7.35
2023-04-23T09:40:09.344Z,7.72
2023-04-23T09:43:53.935Z,6.72
2023-04-23T09:47:39.317Z,5.88
2023-04-23T09:51:21.177Z,3.83
2023-04-23T09:55:04.098Z,3.45
2023-04-23T09:58:46.452Z,3.33
2023-04-23T10:02:29.271Z,3.30
2023-04-23T10:06:30.679Z,2.80
2023-04-23T10:10:18.440Z,3.53
2023-04-23T10:14:00.891Z,3.10
2023-04-23T10:17:42.988Z,4.63
2023-04-23T10:21:42.582Z,4.70
2023-04-23T10:25:33.252Z,4.05
2023-04-23T10:29:17.810Z,4.20
2023-04-23T10:33:01.692Z,5.28
2023-04-23T10:36:43.781Z,4.90
2023-04-23T10:40:32.230Z,4.32
2023-04-23T10:44:17.247Z,4.32
2023-04-23T10:47:59.348Z,4.20
2023-04-23T10:55:29.641Z,3.78
2023-04-23T10:59:23.690Z,3.83
2023-04-23T11:03:05.532Z,4.00
2023-04-23T11:06:52.693Z,4.10
2023-04-23T11:10:34.522Z,4.05
2023-04-23T11:14:16.347Z,4.07
2023-04-23T11:17:58.856Z,4.38
2023-04-23T11:22:06.610Z,4.88
2023-04-23T11:25:48.449Z,3.60
2023-04-23T11:29:30.419Z,3.60
2023-04-23T11:33:12.425Z,4.00
2023-04-23T11:36:54.797Z,3.10
2023-04-23T11:40:37.254Z,2.40
2023-04-23T11:44:22.202Z,4.03
2023-04-23T11:48:05.558Z,3.38
2023-04-23T11:51:49.138Z,3.58
2023-04-23T11:55:31.312Z,3.47
2023-04-23T11:59:13.119Z,2.85
2023-04-23T12:02:59.683Z,3.90
2023-04-23T12:06:43.005Z,3.65
2023-04-23T12:10:24.723Z,3.47
2023-04-23T12:14:08.515Z,3.00
2023-04-23T12:17:51.460Z,2.70
2023-04-23T12:21:34.042Z,2.38
2023-04-23T12:25:16.018Z,2.28
2023-04-23T12:28:59.907Z,2.72
2023-04-23T12:32:41.746Z,2.95
2023-04-23T12:36:28.488Z,3.53
2023-04-23T12:40:10.772Z,3.15
2023-04-23T12:43:52.507Z,2.88
2023-04-23T12:47:34.456Z,2.80
2023-04-23T12:51:16.233Z,2.80
2023-04-23T12:55:00.497Z,3.10
2023-04-23T12:58:42.229Z,2.45
2023-04-23T13:02:26.074Z,1.92
2023-04-23T13:06:08.115Z,2.72
2023-04-23T13:09:49.860Z,2.22
2023-04-23T13:13:31.611Z,3.08
2023-04-23T13:17:13.331Z,3.83
2023-04-23T13:20:55.099Z,3.45
2023-04-23T13:24:36.859Z,3.85
2023-04-23T13:28:18.656Z,3.55
2023-04-23T13:32:00.912Z,4.35
2023-04-23T13:35:43.134Z,5.15
2023-04-23T13:39:24.950Z,5.40
2023-04-23T13:43:06.743Z,5.20
2023-04-23T13:46:49.877Z,5.10
2023-04-23T13:50:31.728Z,5.22
2023-04-23T13:54:13.463Z,5.63
2023-04-23T13:57:58.880Z,4.53
2023-04-23T14:01:40.713Z,5.32
2023-04-23T14:05:22.518Z,5.53
2023-04-23T14:09:04.590Z,5.50
2023-04-23T14:12:46.703Z,6.03
2023-04-23T14:16:28.592Z,6.18
2023-04-23T14:20:11.067Z,6.00
2023-04-23T14:24:17.453Z,5.80
2023-04-23T14:31:43.892Z,5.50
2023-04-23T14:35:41.609Z,5.65
2023-04-23T14:39:26.773Z,4.63
2023-04-23T14:43:15.459Z,2.85
2023-04-23T14:46:57.835Z,2.88
2023-04-23T14:50:39.745Z,3.70
2023-04-23T14:54:22.222Z,5.10
2023-04-23T14:58:03.972Z,5.70
2023-04-23T15:01:45.890Z,5.05
2023-04-23T15:05:27.808Z,5.60
2023-04-23T15:09:09.544Z,5.55
2023-04-23T15:13:02.554Z,6.30
2023-04-23T15:16:48.796Z,6.15
2023-04-23T15:20:30.959Z,5.95
2023-04-23T15:24:12.778Z,3.65
2023-04-23T15:27:57.826Z,3.20
2023-04-23T15:31:39.759Z,2.85
2023-04-23T15:35:25.836Z,2.90
2023-04-23T15:39:08.712Z,2.90
2023-04-23T15:42:50.551Z,3.13
2023-04-23T15:46:32.282Z,2.30
2023-04-23T15:50:14.238Z,3.00
2023-04-23T15:53:55.960Z,2.30
2023-04-23T15:57:37.841Z,2.60
2023-04-23T16:01:20.075Z,2.40
2023-04-23T16:05:01.931Z,2.15
2023-04-23T16:08:43.705Z,2.00
2023-04-23T16:12:25.692Z,1.90
2023-04-23T16:16:07.545Z,2.17
2023-04-23T16:19:49.277Z,2.70
2023-04-23T16:23:30.991Z,2.97
2023-04-23T16:27:13.100Z,3.30
2023-04-23T16:30:54.874Z,2.33
2023-04-23T16:34:36.639Z,2.47
2023-04-23T16:38:18.635Z,2.55
2023-04-23T16:42:00.408Z,2.72
2023-04-23T16:45:42.144Z,2.53
2023-04-23T16:49:23.937Z,1.88
2023-04-23T16:53:05.690Z,2.30
2023-04-23T16:56:47.538Z,2.55
2023-04-23T17:00:29.293Z,2.30
2023-04-23T17:04:11.616Z,1.55
2023-04-23T17:07:53.421Z,1.77
2023-04-23T17:11:35.910Z,1.70
2023-04-23T17:15:17.668Z,2.08
2023-04-23T17:18:59.432Z,2.13
2023-04-23T17:22:41.303Z,2.28
2023-04-23T17:26:23.026Z,2.63
2023-04-23T17:30:05.519Z,2.10
2023-04-23T17:33:49.314Z,2.60
2023-04-23T17:37:32.983Z,2.40
2023-04-23T17:41:16.884Z,2.30
2023-04-23T17:44:58.701Z,2.58
2023-04-23T17:48:41.075Z,2.10
2023-04-23T17:52:22.912Z,2.10
2023-04-23T17:56:04.771Z,2.00
2023-04-23T17:59:46.506Z,2.10
2023-04-23T18:03:30.071Z,2.10
2023-04-23T18:07:12.257Z,2.33
2023-04-23T18:10:54.202Z,1.73
2023-04-23T18:14:35.931Z,2.15
2023-04-23T18:18:18.470Z,2.25
2023-04-23T18:22:02.105Z,3.28
2023-04-23T18:25:43.928Z,2.97
2023-04-23T18:29:26.152Z,2.95
2023-04-23T18:33:30.891Z,2.75
2023-04-23T18:37:30.263Z,3.05
2023-04-23T18:41:12.094Z,2.95
2023-04-23T18:44:55.157Z,3.47
2023-04-23T18:49:04.763Z,3.78
2023-04-23T18:52:46.504Z,3.33
2023-04-23T18:56:28.351Z,3.33
2023-04-23T19:00:10.998Z,4.03
2023-04-23T19:03:53.654Z,3.58
2023-04-23T19:07:37.319Z,4.57
2023-04-23T19:11:19.126Z,4.50
2023-04-23T19:15:00.858Z,4.80
2023-04-23T19:18:42.655Z,5.88
2023-04-23T19:22:25.770Z,4.00
2023-04-23T19:26:07.518Z,4.93
2023-04-23T19:29:49.398Z,5.45
2023-04-23T19:33:31.315Z,4.90
2023-04-23T19:37:13.063Z,5.93
2023-04-23T19:40:54.960Z,5.43
2023-04-23T19:44:37.208Z,6.20
2023-04-23T19:48:19.103Z,6.38
2023-04-23T19:52:03.325Z,7.00
2023-04-23T19:55:45.326Z,6.68
2023-04-23T19:59:27.361Z,7.22
2023-04-23T20:03:09.299Z,6.53
2023-04-23T20:06:51.145Z,6.97
2023-04-23T20:10:32.901Z,7.30
2023-04-23T20:14:15.146Z,7.20
2023-04-23T20:17:56.951Z,7.10
2023-04-23T20:21:39.362Z,7.40
2023-04-23T20:25:25.618Z,7.43
2023-04-23T20:29:08.143Z,7.50
2023-04-23T20:32:50.000Z,7.70
2023-04-23T20:36:33.267Z,7.00
2023-04-23T20:40:15.340Z,7.95
2023-04-23T20:43:58.638Z,8.25
2023-04-23T20:47:41.349Z,9.10
2023-04-23T20:51:23.725Z,7.70
2023-04-23T20:55:05.897Z,8.88
2023-04-23T20:58:47.697Z,8.85
2023-04-23T21:02:29.709Z,9.40
2023-04-23T21:06:11.954Z,9.15
2023-04-23T21:09:53.653Z,9.63
2023-04-23T21:13:35.509Z,11.20
2023-04-23T21:17:17.551Z,10.43
2023-04-23T21:20:59.898Z,10.27
2023-04-23T21:24:41.642Z,9.73
2023-04-23T21:28:23.643Z,11.13
2023-04-23T21:32:05.454Z,10.75
2023-04-23T21:35:48.151Z,11.02
2023-04-23T21:39:30.855Z,9.82
2023-04-23T21:43:12.900Z,9.82
2023-04-23T21:46:54.739Z,10.63
2023-04-23T21:50:36.652Z,8.48
2023-04-23T21:54:18.397Z,9.63
2023-04-23T21:58:15.895Z,9.20
2023-04-23T22:01:58.896Z,9.55
2023-04-23T22:05:41.464Z,9.52
2023-04-23T22:09:23.230Z,9.23
2023-04-23T22:13:04.968Z,8.95
2023-04-23T22:16:49.050Z,9.40
2023-04-23T22:20:31.098Z,10.15
2023-04-23T22:24:12.891Z,11.35
2023-04-23T22:27:54.712Z,10.75
2023-04-23T22:31:36.572Z,10.75
2023-04-23T22:35:18.394Z,9.20
2023-04-23T22:39:01.165Z,11.07
2023-04-23T22:42:42.914Z,10.07
2023-04-23T22:46:24.691Z,10.25
2023-04-23T22:50:07.855Z,10.65
2023-04-23T22:53:49.568Z,8.98
2023-04-23T22:57:31.419Z,9.68
2023-04-23T23:01:13.249Z,9.70
2023-04-23T23:04:55.013Z,10.32
2023-04-23T23:08:36.741Z,9.48
2023-04-23T23:12:18.473Z,9.32
2023-04-23T23:16:04.573Z,9.35
2023-04-23T23:19:46.372Z,9.13
2023-04-23T23:23:28.162Z,8.65
2023-04-23T23:27:10.013Z,9.15
2023-04-23T23:30:51.782Z,8.60
2023-04-23T23:34:33.561Z,8.18
2023-04-23T23:38:15.906Z,8.52
2023-04-23T23:41:59.567Z,8.75
2023-04-23T23:45:41.716Z,8.68
2023-04-23T23:49:23.451Z,7.57
2023-04-23T23:53:05.238Z,8.43
2023-04-23T23:56:46.956Z,8.25
